createdAt,value
2018-10-19T00:01:47.414Z,11.03
2018-10-19T00:04:21.469Z,10.17
2018-10-19T00:06:55.916Z,10.57
2018-10-19T00:12:03.832Z,9.50
2018-10-19T00:14:37.702Z,8.93
2018-10-19T00:17:11.831Z,8.70
2018-10-19T00:19:46.315Z,8.77
2018-10-19T00:22:21.465Z,8.80
2018-10-19T00:24:56.048Z,8.93
2018-10-19T00:27:30.873Z,9.10
2018-10-19T00:30:05.146Z,8.93
2018-10-19T00:32:39.758Z,8.55
2018-10-19T00:35:13.837Z,10.47
2018-10-19T00:37:48.372Z,9.17
2018-10-19T00:40:23.467Z,9.80
2018-10-19T00:42:57.922Z,8.20
2018-10-19T00:48:23.794Z,7.62
2018-10-19T00:50:57.975Z,8.37
2018-10-19T00:56:04.909Z,8.38
2018-10-19T01:01:12.288Z,9.63
2018-10-19T01:03:46.799Z,11.53
2018-10-19T01:06:21.265Z,8.38
2018-10-19T01:08:55.362Z,8.10
2018-10-19T01:11:29.636Z,8.78
2018-10-19T01:14:04.586Z,8.30
2018-10-19T01:16:38.841Z,7.95
2018-10-19T01:19:13.300Z,7.92
2018-10-19T01:21:47.785Z,9.08
2018-10-19T01:24:22.460Z,8.18
2018-10-19T01:26:57.015Z,8.03
2018-10-19T01:29:32.781Z,7.95
2018-10-19T01:32:07.894Z,7.67
2018-10-19T01:37:16.870Z,9.50
2018-10-19T01:39:50.872Z,7.80
2018-10-19T01:42:25.988Z,9.35
2018-10-19T01:44:59.910Z,7.50
2018-10-19T01:47:34.468Z,7.50
2018-10-19T01:50:09.578Z,7.50
2018-10-19T01:52:44.453Z,7.03
2018-10-19T01:55:19.786Z,7.70
2018-10-19T01:57:54.797Z,7.33
2018-10-19T02:00:30.475Z,7.62
2018-10-19T02:03:06.459Z,7.27
2018-10-19T02:05:41.332Z,6.53
2018-10-19T02:08:15.463Z,7.10
2018-10-19T02:10:50.350Z,7.63
2018-10-19T02:13:25.878Z,7.70
2018-10-19T02:16:00.765Z,7.20
2018-10-19T02:18:36.289Z,7.53
2018-10-19T02:21:11.511Z,7.37
2018-10-19T02:23:47.257Z,7.70
2018-10-19T02:26:21.707Z,6.73
2018-10-19T02:28:55.472Z,7.10
2018-10-19T02:31:30.760Z,7.17
2018-10-19T02:34:05.278Z,7.20
2018-10-19T02:36:39.626Z,7.70
2018-10-19T02:39:14.538Z,6.67
2018-10-19T02:41:48.745Z,6.80
2018-10-19T02:44:22.916Z,7.07
2018-10-19T02:49:30.439Z,6.92
2018-10-19T02:52:04.311Z,6.87
2018-10-19T02:54:38.819Z,6.30
2018-10-19T02:57:13.035Z,7.17
2018-10-19T02:59:47.782Z,6.67
2018-10-19T03:02:20.815Z,6.70
2018-10-19T03:04:56.472Z,8.27
2018-10-19T03:07:30.652Z,8.73
2018-10-19T03:10:04.460Z,5.97
2018-10-19T03:12:39.091Z,6.37
2018-10-19T03:15:12.928Z,6.53
2018-10-19T03:20:21.711Z,6.90
2018-10-19T03:22:55.925Z,7.67
2018-10-19T03:28:03.731Z,6.55
2018-10-19T03:30:38.439Z,6.57
2018-10-19T03:33:12.729Z,7.53
2018-10-19T03:35:47.244Z,6.83
2018-10-19T03:38:22.689Z,7.00
2018-10-19T03:40:57.264Z,6.43
2018-10-19T03:43:31.350Z,8.00
2018-10-19T03:46:05.917Z,6.73
2018-10-19T03:51:13.885Z,7.10
2018-10-19T03:53:48.438Z,7.10
2018-10-19T03:56:22.278Z,6.80
2018-10-19T03:58:56.931Z,6.10
2018-10-19T04:01:31.287Z,6.20
2018-10-19T04:04:06.460Z,6.97
2018-10-19T04:06:40.788Z,6.60
2018-10-19T04:09:15.961Z,6.90
2018-10-19T04:14:25.771Z,6.53
2018-10-19T04:16:59.566Z,7.03
2018-10-19T04:19:34.344Z,8.03
2018-10-19T04:22:09.125Z,6.40
2018-10-19T04:24:43.339Z,7.22
2018-10-19T04:27:17.691Z,6.67
2018-10-19T04:29:52.611Z,6.40
2018-10-19T04:32:26.783Z,6.70
2018-10-19T04:37:35.609Z,6.97
2018-10-19T04:40:25.260Z,6.30
2018-10-19T04:42:59.780Z,6.75
2018-10-19T04:45:34.469Z,6.67
2018-10-19T04:48:08.899Z,7.03
2018-10-19T04:53:16.068Z,7.37
2018-10-19T04:55:50.312Z,6.33
2018-10-19T04:58:25.244Z,6.60
2018-10-19T05:01:00.459Z,7.47
2018-10-19T05:03:35.780Z,6.50
2018-10-19T05:06:10.413Z,5.80
2018-10-19T05:08:44.760Z,6.40
2018-10-19T05:11:18.901Z,6.13
2018-10-19T05:13:53.329Z,7.53
2018-10-19T05:16:27.652Z,7.03
2018-10-19T05:19:02.519Z,6.70
2018-10-19T05:21:42.581Z,7.00
2018-10-19T05:24:17.456Z,6.37
2018-10-19T05:26:52.255Z,6.10
2018-10-19T05:29:26.103Z,6.25
2018-10-19T05:32:01.156Z,6.53
2018-10-19T05:34:35.279Z,6.80
2018-10-19T05:37:09.468Z,5.78
2018-10-19T05:39:44.329Z,6.03
2018-10-19T05:42:18.777Z,6.40
2018-10-19T05:44:53.688Z,5.83
2018-10-19T05:47:28.241Z,6.20
2018-10-19T05:50:02.439Z,6.20
2018-10-19T05:52:37.816Z,5.87
2018-10-19T05:55:12.789Z,6.00
2018-10-19T05:57:47.399Z,7.10
2018-10-19T06:00:21.686Z,7.00
2018-10-19T06:02:56.785Z,6.43
2018-10-19T06:05:32.324Z,6.07
2018-10-19T06:08:06.888Z,6.27
2018-10-19T06:10:40.816Z,5.33
2018-10-19T06:13:14.254Z,5.73
2018-10-19T06:15:48.375Z,5.13
2018-10-19T06:18:22.923Z,4.83
2018-10-19T06:20:58.304Z,6.60
2018-10-19T06:23:32.741Z,6.63
2018-10-19T06:26:07.212Z,9.57
2018-10-19T06:28:41.474Z,12.03
2018-10-19T06:31:15.796Z,7.90
2018-10-19T06:33:50.557Z,6.50
2018-10-19T06:36:25.291Z,6.30
2018-10-19T06:38:59.796Z,7.10
2018-10-19T06:41:33.378Z,5.67
2018-10-19T06:44:07.589Z,12.70
2018-10-19T06:46:41.326Z,11.27
2018-10-19T06:49:15.791Z,8.03
2018-10-19T06:51:49.927Z,9.00
2018-10-19T06:56:56.648Z,10.08
2018-10-19T06:59:31.751Z,8.20
2018-10-19T07:02:06.532Z,6.13
2018-10-19T07:04:40.889Z,10.27
2018-10-19T07:07:14.845Z,11.00
2018-10-19T07:09:49.341Z,11.23
2018-10-19T07:12:23.332Z,15.40
2018-10-19T07:14:57.914Z,9.30
2018-10-19T07:20:06.039Z,12.35
2018-10-19T07:22:40.098Z,9.47
2018-10-19T07:25:14.494Z,9.43
2018-10-19T07:27:48.305Z,15.23
2018-10-19T07:30:23.672Z,15.17
2018-10-19T07:32:58.308Z,17.63
2018-10-19T07:35:32.650Z,13.60
2018-10-19T07:38:07.776Z,12.23
2018-10-19T07:40:42.130Z,13.00
2018-10-19T07:43:16.273Z,14.90
2018-10-19T07:45:50.874Z,15.17
2018-10-19T07:48:24.918Z,16.47
2018-10-19T07:50:58.384Z,13.77
2018-10-19T07:53:33.733Z,12.43
2018-10-19T07:56:08.489Z,9.03
2018-10-19T07:58:42.772Z,16.03
2018-10-19T08:01:16.682Z,16.07
2018-10-19T08:03:51.656Z,19.20
2018-10-19T08:06:25.790Z,14.07
2018-10-19T08:09:00.475Z,10.67
2018-10-19T08:11:34.661Z,16.10
2018-10-19T08:14:09.318Z,17.70
2018-10-19T08:16:43.259Z,18.35
2018-10-19T08:19:17.485Z,15.38
2018-10-19T08:21:51.670Z,15.03
2018-10-19T08:24:25.801Z,11.93
2018-10-19T08:27:00.097Z,16.30
2018-10-19T08:29:34.260Z,14.07
2018-10-19T08:32:10.345Z,12.00
2018-10-19T08:34:44.816Z,11.03
2018-10-19T08:37:19.792Z,15.40
2018-10-19T08:39:53.943Z,15.80
2018-10-19T08:45:01.811Z,12.47
2018-10-19T08:47:36.493Z,14.80
2018-10-19T08:50:11.331Z,16.90
2018-10-19T08:52:45.733Z,10.77
2018-10-19T08:55:19.718Z,10.10
2018-10-19T08:57:54.385Z,14.23
2018-10-19T09:00:28.394Z,8.73
2018-10-19T09:03:03.685Z,9.20
2018-10-19T09:05:38.893Z,11.80
2018-10-19T09:10:47.502Z,10.10
2018-10-19T09:13:21.799Z,11.87
2018-10-19T09:15:55.095Z,12.77
2018-10-19T09:18:28.438Z,8.33
2018-10-19T09:21:03.844Z,10.30
2018-10-19T09:23:37.869Z,12.57
2018-10-19T09:26:12.469Z,11.30
2018-10-19T09:28:46.248Z,12.82
2018-10-19T09:31:21.259Z,12.23
2018-10-19T09:33:55.354Z,12.82
2018-10-19T09:39:03.502Z,13.80
2018-10-19T09:41:37.731Z,11.67
2018-10-19T09:44:11.475Z,15.83
2018-10-19T09:46:45.659Z,11.68
2018-10-19T09:49:20.377Z,10.13
2018-10-19T09:51:54.304Z,12.73
2018-10-19T09:54:28.729Z,16.67
2018-10-19T09:57:03.172Z,14.80
2018-10-19T09:59:37.342Z,17.92
2018-10-19T10:02:11.735Z,12.63
2018-10-19T10:05:23.515Z,12.83
2018-10-19T10:12:41.784Z,18.67
2018-10-19T10:15:53.014Z,22.40
2018-10-19T10:21:37.779Z,13.15
2018-10-19T10:24:30.757Z,16.33
2018-10-19T10:27:23.476Z,10.60
2018-10-19T10:42:37.073Z,22.63
2018-10-19T10:45:29.826Z,26.12
2018-10-19T10:48:22.864Z,16.10
2018-10-19T10:51:16.263Z,12.10
2018-10-19T10:54:08.911Z,18.40
2018-10-19T10:59:53.262Z,14.65
2018-10-19T11:02:45.700Z,20.57
2018-10-19T11:05:38.464Z,13.67
2018-10-19T11:08:31.475Z,14.98
2018-10-19T11:14:12.150Z,16.87
2018-10-19T11:19:59.825Z,19.77
2018-10-19T11:22:53.313Z,18.75
2018-10-19T11:25:46.369Z,23.47
2018-10-19T11:28:38.756Z,24.05
2018-10-19T11:31:32.473Z,17.12
2018-10-19T11:34:25.841Z,23.57
2018-10-19T11:36:59.871Z,21.63
2018-10-19T11:43:32.790Z,21.13
2018-10-19T11:46:07.474Z,19.77
2018-10-19T11:52:35.843Z,29.03
2018-10-19T11:55:28.681Z,23.03
2018-10-19T11:58:21.604Z,24.37
2018-10-19T12:01:15.323Z,20.63
2018-10-19T12:04:08.184Z,22.95
2018-10-19T12:07:00.734Z,27.25
2018-10-19T12:18:35.281Z,17.25
2018-10-19T12:21:27.732Z,18.60
2018-10-19T12:24:20.376Z,19.27
2018-10-19T12:27:14.332Z,25.35
2018-10-19T12:30:07.592Z,22.70
2018-10-19T12:44:03.634Z,21.70
2018-10-19T12:47:38.793Z,22.48
2018-10-19T12:50:34.481Z,18.32
2018-10-19T16:27:29.773Z,7.03
2018-10-19T16:30:22.638Z,10.48
2018-10-19T16:35:53.715Z,8.50
2018-10-19T16:38:45.878Z,10.23
2018-10-19T16:41:38.466Z,9.20
2018-10-19T16:44:31.267Z,6.53
2018-10-19T16:47:23.743Z,5.72
2018-10-19T16:50:17.245Z,8.30
2018-10-19T16:56:26.753Z,7.60
2018-10-19T16:59:19.468Z,7.37
2018-10-19T17:02:12.559Z,6.28
2018-10-19T17:05:05.766Z,7.17
2018-10-19T17:07:39.695Z,5.90
2018-10-19T17:13:29.870Z,5.10
2018-10-19T17:16:22.479Z,5.53
2018-10-19T17:19:15.825Z,10.07
2018-10-19T17:22:09.242Z,9.08
2018-10-19T17:25:01.821Z,8.15
2018-10-19T17:27:54.463Z,8.13
2018-10-19T17:30:47.262Z,5.83
2018-10-19T17:33:21.124Z,8.70
2018-10-19T17:36:13.726Z,5.75
2018-10-19T17:39:08.538Z,7.90
2018-10-19T17:41:53.840Z,6.30
2018-10-19T17:44:46.462Z,6.17
2018-10-19T17:47:38.907Z,8.93
2018-10-19T17:50:31.454Z,5.10
2018-10-19T17:53:24.277Z,9.00
2018-10-19T17:56:16.847Z,9.57
2018-10-19T17:59:09.925Z,7.13
2018-10-19T18:04:54.299Z,6.23
2018-10-19T18:07:47.860Z,6.33
2018-10-19T18:10:40.568Z,7.45
2018-10-19T18:22:39.817Z,10.83
2018-10-19T18:25:32.668Z,7.90
2018-10-19T18:28:25.377Z,6.20
2018-10-19T18:31:18.251Z,13.20
2018-10-19T18:34:11.583Z,9.63
2018-10-19T18:37:03.851Z,16.10
2018-10-19T18:39:56.374Z,16.53
2018-10-19T18:42:30.375Z,16.50
2018-10-19T18:45:03.880Z,12.78
2018-10-19T18:53:28.266Z,9.87
2018-10-19T18:56:20.836Z,15.03
2018-10-19T18:59:13.711Z,14.70
2018-10-19T19:02:05.877Z,11.50
2018-10-19T19:04:59.358Z,13.80
2018-10-19T19:07:52.299Z,14.17
2018-10-19T19:10:46.245Z,9.57
2018-10-19T19:13:57.516Z,12.33
2018-10-19T19:16:50.456Z,14.93
2018-10-19T19:19:43.276Z,13.00
2018-10-19T19:22:35.726Z,14.17
2018-10-19T19:25:46.423Z,16.10
2018-10-19T19:28:39.279Z,22.03
2018-10-19T19:31:32.792Z,11.40
2018-10-19T19:34:24.116Z,15.10
2018-10-19T19:36:58.321Z,17.07
2018-10-19T19:42:58.676Z,18.60
2018-10-19T19:45:50.862Z,17.03
2018-10-19T20:03:54.794Z,18.00
2018-10-19T20:06:48.710Z,18.07
2018-10-19T20:09:41.252Z,15.23
2018-10-19T20:12:33.913Z,15.70
2018-10-19T20:18:18.544Z,18.10
2018-10-19T20:20:52.279Z,13.53
2018-10-19T20:23:44.900Z,13.77
2018-10-19T20:29:29.259Z,11.00
2018-10-19T20:32:22.000Z,16.17
2018-10-19T20:35:14.641Z,13.07
2018-10-19T20:38:07.752Z,14.97
2018-10-19T20:43:46.593Z,16.40
2018-10-19T20:47:09.826Z,16.87
2018-10-19T20:49:50.633Z,11.10
2018-10-19T20:52:43.410Z,11.50
2018-10-19T21:02:49.459Z,12.60
2018-10-19T21:06:18.315Z,9.60
2018-10-19T21:09:13.437Z,12.00
2018-10-19T21:12:06.269Z,15.13
2018-10-19T21:22:40.403Z,14.37
2018-10-19T21:27:22.464Z,12.37
2018-10-19T21:30:15.465Z,11.10
2018-10-19T21:33:08.465Z,14.70
2018-10-19T21:36:01.782Z,12.83
2018-10-19T21:38:54.785Z,12.77
2018-10-19T21:41:48.606Z,10.60
2018-10-19T21:48:04.639Z,12.53
2018-10-19T21:51:09.743Z,13.20
2018-10-19T21:53:50.788Z,13.80
2018-10-19T21:56:43.871Z,14.20
2018-10-19T21:59:37.816Z,12.83
2018-10-19T22:02:31.340Z,12.20
2018-10-19T22:05:05.825Z,13.30
2018-10-19T22:07:40.655Z,9.40
2018-10-19T22:10:14.834Z,9.83
2018-10-19T22:12:49.248Z,10.98
2018-10-19T22:18:08.740Z,13.00
2018-10-19T22:20:43.681Z,11.27
2018-10-19T22:23:17.714Z,8.93
2018-10-19T22:25:51.776Z,11.30
2018-10-19T22:28:25.677Z,12.27
2018-10-19T22:30:59.676Z,14.13
2018-10-19T22:33:33.886Z,12.77
2018-10-19T22:38:41.832Z,10.65
2018-10-19T22:41:16.332Z,11.43
2018-10-19T22:43:49.823Z,10.40
2018-10-19T22:46:23.630Z,8.90
2018-10-19T22:48:57.622Z,10.90
2018-10-19T22:51:31.285Z,11.37
2018-10-19T22:54:05.362Z,10.60
2018-10-19T22:56:39.474Z,11.10
2018-10-19T22:59:13.343Z,13.17
2018-10-19T23:01:47.279Z,8.55
2018-10-19T23:04:21.827Z,10.97
2018-10-19T23:06:57.633Z,11.63
2018-10-19T23:09:31.301Z,8.47
2018-10-19T23:12:05.413Z,10.10
2018-10-19T23:14:40.263Z,9.00
2018-10-19T23:17:14.674Z,11.50
2018-10-19T23:19:49.002Z,10.23
2018-10-19T23:22:23.432Z,9.80
2018-10-19T23:24:57.264Z,9.70
2018-10-19T23:27:31.781Z,10.77
2018-10-19T23:30:06.292Z,8.80
2018-10-19T23:32:40.123Z,8.87
2018-10-19T23:35:14.362Z,10.38
2018-10-19T23:37:48.361Z,9.13
2018-10-19T23:40:23.684Z,8.57
2018-10-19T23:42:58.476Z,11.87
2018-10-19T23:45:32.294Z,9.77
2018-10-19T23:48:07.598Z,10.57
2018-10-19T23:50:41.879Z,9.03
2018-10-19T23:55:49.807Z,8.98
2018-10-19T23:58:24.754Z,9.77
